Time;durP1;ratioP1;P1;durP2;ratioP2;P2;SDS_P1;SDS_P2;PMS_P1;PMS_P2;Temp;Humidity;BMP_temperature;BMP_pressure;BME280_temperature;BME280_humidity;BME280_pressure;Samples;Min_cycle;Max_cycle;Signal;HPM_P1;HPM_P2
2021/08/23 00:01:47;;;;;;;;;;;17.70;98.70;;;;;;5045454;28;20151;-72
2021/08/23 00:04:14;;;;;;;;;;;17.70;98.70;;;;;;5029957;28;20325;-72
2021/08/23 00:06:39;;;;;;;;;;;17.80;98.70;;;;;;5048028;28;19940;-72
2021/08/23 00:09:05;;;;;;;;;;;17.70;98.70;;;;;;5046680;28;20403;-72
2021/08/23 00:11:30;;;;;;;;;;;17.70;98.60;;;;;;5038653;28;19909;-72
2021/08/23 00:13:56;;;;;;;;;;;17.60;98.70;;;;;;5045924;28;19924;-72
2021/08/23 00:16:21;;;;;;;;;;;17.50;98.80;;;;;;5030617;28;19917;-72
2021/08/23 00:18:47;;;;;;;;;;;17.40;99.00;;;;;;5028345;28;19986;-72
2021/08/23 00:21:20;;;;;;;;;;;17.30;98.90;;;;;;5047938;28;19936;-72
2021/08/23 00:24:05;;;;;;;;;;;17.30;99.00;;;;;;5047977;28;19927;-72
2021/08/23 00:26:32;;;;;;;;;;;17.40;99.20;;;;;;5046826;28;19917;-72
2021/08/23 00:28:57;;;;;;;;;;;17.40;99.00;;;;;;5052293;28;19913;-72
2021/08/23 00:31:22;;;;;;;;;;;17.40;99.10;;;;;;5052178;28;19912;-71
2021/08/23 00:33:48;;;;;;;;;;;17.30;99.00;;;;;;5051193;28;20375;-72
2021/08/23 00:36:13;;;;;;;;;;;17.40;99.10;;;;;;5050663;28;19940;-71
2021/08/23 00:38:39;;;;;;;;;;;17.30;99.00;;;;;;5034928;28;19999;-71
2021/08/23 00:41:04;;;;;;;;;;;17.30;99.00;;;;;;5051952;28;20066;-71
2021/08/23 00:43:30;;;;;;;;;;;17.40;98.90;;;;;;5050492;28;19913;-71
2021/08/23 00:45:56;;;;;;;;;;;17.30;98.90;;;;;;5049276;28;19986;-71
2021/08/23 00:48:21;;;;;;;;;;;17.30;98.80;;;;;;5052571;28;20420;-71
2021/08/23 00:50:47;;;;;;;;;;;17.20;98.70;;;;;;5050669;28;20043;-71
2021/08/23 00:53:12;;;;;;;;;;;17.00;98.70;;;;;;5052609;28;19917;-71
2021/08/23 00:55:38;;;;;;;;;;;16.90;98.80;;;;;;5050078;28;20003;-71
2021/08/23 00:58:03;;;;;;;;;;;16.90;98.90;;;;;;5051152;28;20050;-71
2021/08/23 01:00:31;;;;;;;;;;;16.80;98.90;;;;;;5051495;28;19955;-71
2021/08/23 01:02:57;;;;;;;;;;;16.90;99.00;;;;;;5032798;28;19927;-71
2021/08/23 01:05:25;;;;;;;;;;;16.80;98.80;;;;;;5050093;28;19912;-72
2021/08/23 01:07:51;;;;;;;;;;;16.80;98.90;;;;;;5049004;28;19913;-72
2021/08/23 01:10:20;;;;;;;;;;;16.80;98.90;;;;;;5028884;28;19926;-72
2021/08/23 01:12:45;;;;;;;;;;;16.80;98.90;;;;;;5051305;28;20035;-71
2021/08/23 01:15:11;;;;;;;;;;;16.70;98.90;;;;;;5050424;28;20439;-72
2021/08/23 01:17:36;;;;;;;;;;;16.80;99.00;;;;;;5051521;28;19917;-72
2021/08/23 01:20:04;;;;;;;;;;;16.80;99.10;;;;;;5050195;28;20386;-72
2021/08/23 01:22:32;;;;;;;;;;;17.00;99.00;;;;;;5051459;28;19917;-72
2021/08/23 01:24:59;;;;;;;;;;;17.10;98.80;;;;;;5023791;28;19924;-72
2021/08/23 01:27:25;;;;;;;;;;;17.10;98.80;;;;;;5033078;28;20417;-72
2021/08/23 01:29:58;;;;;;;;;;;17.20;98.70;;;;;;5031179;28;19913;-72
2021/08/23 01:32:26;;;;;;;;;;;17.20;98.70;;;;;;5052050;28;19919;-72
2021/08/23 01:34:53;;;;;;;;;;;17.20;98.50;;;;;;5050375;28;19916;-72
2021/08/23 01:37:19;;;;;;;;;;;17.10;98.40;;;;;;5049274;28;19957;-71
2021/08/23 01:39:45;;;;;;;;;;;17.10;98.40;;;;;;5049111;28;19977;-71
2021/08/23 01:42:11;;;;;;;;;;;17.00;98.40;;;;;;5038680;28;20051;-71
2021/08/23 01:44:36;;;;;;;;;;;17.00;98.50;;;;;;5050367;28;19924;-72
2021/08/23 01:47:02;;;;;;;;;;;17.00;98.40;;;;;;5032553;28;20407;-72
2021/08/23 01:49:27;;;;;;;;;;;17.00;98.40;;;;;;5032836;28;19944;-71
2021/08/23 01:51:53;;;;;;;;;;;17.00;98.40;;;;;;5032036;28;19924;-71
2021/08/23 01:54:18;;;;;;;;;;;17.10;98.40;;;;;;5049259;28;19924;-72
2021/08/23 01:56:44;;;;;;;;;;;17.10;98.10;;;;;;5049116;28;20375;-72
2021/08/23 01:59:10;;;;;;;;;;;17.00;98.10;;;;;;5047043;28;20000;-71
2021/08/23 02:01:35;;;;;;;;;;;17.00;98.10;;;;;;5045014;28;19921;-71
2021/08/23 02:04:00;;;;;;;;;;;17.00;98.20;;;;;;5049245;28;20019;-71
2021/08/23 02:06:26;;;;;;;;;;;16.90;98.20;;;;;;5051184;28;20245;-71
2021/08/23 02:08:52;;;;;;;;;;;16.90;98.10;;;;;;5050416;28;20410;-71
2021/08/23 02:11:18;;;;;;;;;;;16.80;98.20;;;;;;5049138;28;19912;-71
2021/08/23 02:13:44;;;;;;;;;;;16.80;98.30;;;;;;5046786;28;19919;-71
2021/08/23 02:16:09;;;;;;;;;;;16.80;98.30;;;;;;5045250;28;20003;-71
2021/08/23 02:18:35;;;;;;;;;;;16.90;98.30;;;;;;5051327;28;19916;-71
2021/08/23 02:21:00;;;;;;;;;;;16.80;98.20;;;;;;5049085;28;19913;-72
2021/08/23 02:23:26;;;;;;;;;;;16.90;98.30;;;;;;5049164;28;19913;-71
2021/08/23 02:25:51;;;;;;;;;;;16.90;98.20;;;;;;5047496;28;19920;-71
2021/08/23 02:28:17;;;;;;;;;;;16.90;98.20;;;;;;5047730;28;20004;-71
2021/08/23 02:30:42;;;;;;;;;;;17.00;98.20;;;;;;5049812;28;19913;-72
2021/08/23 02:33:08;;;;;;;;;;;17.00;98.00;;;;;;5050215;28;20371;-71
2021/08/23 02:35:33;;;;;;;;;;;16.90;98.20;;;;;;5048465;28;19919;-72
2021/08/23 02:37:59;;;;;;;;;;;16.90;98.20;;;;;;5050608;28;20283;-71
2021/08/23 02:40:24;;;;;;;;;;;16.90;98.20;;;;;;5047559;28;20394;-72
2021/08/23 02:42:50;;;;;;;;;;;16.80;98.20;;;;;;5049220;28;19931;-72
2021/08/23 02:45:15;;;;;;;;;;;16.80;98.10;;;;;;5045187;28;19928;-72
2021/08/23 02:47:41;;;;;;;;;;;16.70;98.20;;;;;;5045464;28;19923;-71
2021/08/23 02:50:08;;;;;;;;;;;16.70;98.20;;;;;;5046859;28;20011;-71
2021/08/23 02:52:33;;;;;;;;;;;16.70;98.30;;;;;;5048659;28;19919;-71
2021/08/23 02:54:59;;;;;;;;;;;16.60;98.40;;;;;;5048712;28;20015;-71
2021/08/23 02:57:24;;;;;;;;;;;16.60;98.40;;;;;;5048485;28;19919;-71
2021/08/23 02:59:50;;;;;;;;;;;16.50;98.40;;;;;;5043943;28;19913;-71
2021/08/23 03:02:15;;;;;;;;;;;16.50;98.50;;;;;;5045847;28;19935;-71
2021/08/23 03:04:41;;;;;;;;;;;16.50;98.60;;;;;;5048856;28;19923;-71
2021/08/23 03:07:06;;;;;;;;;;;16.50;98.50;;;;;;5028192;28;19927;-71
2021/08/23 03:09:31;;;;;;;;;;;16.40;98.50;;;;;;5046746;28;19913;-71
2021/08/23 03:11:57;;;;;;;;;;;16.40;98.60;;;;;;5048575;28;20284;-71
2021/08/23 03:14:23;;;;;;;;;;;16.40;98.60;;;;;;5047836;28;19913;-71
2021/08/23 03:16:48;;;;;;;;;;;16.50;98.50;;;;;;5047905;28;20011;-71
2021/08/23 03:19:14;;;;;;;;;;;16.50;98.40;;;;;;5049277;28;20391;-71
2021/08/23 03:21:39;;;;;;;;;;;16.40;98.40;;;;;;5046872;28;20354;-71
2021/08/23 03:24:04;;;;;;;;;;;16.40;98.30;;;;;;5047131;28;20080;-71
2021/08/23 03:26:30;;;;;;;;;;;16.40;98.40;;;;;;5030329;28;19919;-71
2021/08/23 03:28:55;;;;;;;;;;;16.40;98.50;;;;;;5046312;28;19927;-71
2021/08/23 03:31:21;;;;;;;;;;;16.40;98.50;;;;;;5048182;28;19913;-71
2021/08/23 03:33:46;;;;;;;;;;;16.40;98.40;;;;;;5039819;28;19917;-71
2021/08/23 03:36:11;;;;;;;;;;;16.30;98.40;;;;;;5047234;28;19917;-71
2021/08/23 03:38:40;;;;;;;;;;;16.20;98.40;;;;;;5047868;28;20267;-71
2021/08/23 03:41:06;;;;;;;;;;;16.20;98.40;;;;;;5028639;28;20283;-71
2021/08/23 03:43:31;;;;;;;;;;;16.10;98.60;;;;;;5025736;28;19921;-71
2021/08/23 03:45:57;;;;;;;;;;;16.20;98.70;;;;;;5044093;28;19924;-71
2021/08/23 03:48:22;;;;;;;;;;;16.10;98.60;;;;;;5031074;28;19955;-71
2021/08/23 03:50:47;;;;;;;;;;;16.10;98.80;;;;;;5047859;28;19916;-71
2021/08/23 03:53:13;;;;;;;;;;;16.20;98.80;;;;;;5049576;28;19916;-71
2021/08/23 03:55:38;;;;;;;;;;;16.30;98.70;;;;;;5044545;28;19916;-71
2021/08/23 03:58:04;;;;;;;;;;;16.30;98.80;;;;;;5045611;28;19946;-71
2021/08/23 04:00:30;;;;;;;;;;;16.30;98.70;;;;;;5043363;28;19913;-72
2021/08/23 04:02:55;;;;;;;;;;;16.40;98.80;;;;;;5044872;28;20303;-71
2021/08/23 04:05:21;;;;;;;;;;;16.40;98.70;;;;;;5047017;28;19916;-71
2021/08/23 04:07:46;;;;;;;;;;;16.30;98.60;;;;;;5048362;28;19913;-71
2021/08/23 04:10:11;;;;;;;;;;;16.30;98.80;;;;;;5038847;28;20011;-74
2021/08/23 04:12:37;;;;;;;;;;;16.30;98.80;;;;;;5048825;28;19913;-75
2021/08/23 04:15:03;;;;;;;;;;;16.20;98.80;;;;;;5046233;28;19956;-75
2021/08/23 04:17:28;;;;;;;;;;;16.10;99.00;;;;;;5045651;28;19924;-74
2021/08/23 04:19:54;;;;;;;;;;;16.00;99.00;;;;;;5045669;28;19919;-75
2021/08/23 04:22:19;;;;;;;;;;;16.00;99.10;;;;;;5029092;28;19920;-75
2021/08/23 04:24:45;;;;;;;;;;;15.90;99.10;;;;;;5045518;28;19917;-74
2021/08/23 04:27:10;;;;;;;;;;;15.90;99.30;;;;;;5047255;28;20363;-75
2021/08/23 04:29:36;;;;;;;;;;;16.00;99.40;;;;;;5029378;28;20425;-74
2021/08/23 04:32:01;;;;;;;;;;;15.90;99.40;;;;;;5037457;28;19917;-74
2021/08/23 04:34:27;;;;;;;;;;;15.90;99.30;;;;;;5048124;28;19917;-74
2021/08/23 04:36:52;;;;;;;;;;;15.90;99.40;;;;;;5047103;28;19916;-74
2021/08/23 04:39:18;;;;;;;;;;;15.80;99.40;;;;;;5048238;28;19912;-74
2021/08/23 04:41:43;;;;;;;;;;;15.80;99.50;;;;;;5029143;28;20092;-74
2021/08/23 04:44:09;;;;;;;;;;;15.80;99.60;;;;;;5046582;28;20583;-74
2021/08/23 04:46:35;;;;;;;;;;;15.80;99.60;;;;;;5029735;28;20295;-75
2021/08/23 04:49:00;;;;;;;;;;;15.80;99.70;;;;;;5040940;28;19912;-75
2021/08/23 04:51:26;;;;;;;;;;;15.80;99.80;;;;;;5047104;28;19916;-74
2021/08/23 04:53:51;;;;;;;;;;;15.80;99.80;;;;;;5046028;28;19916;-75
2021/08/23 04:56:17;;;;;;;;;;;15.70;99.80;;;;;;5046756;28;19916;-75
2021/08/23 04:58:43;;;;;;;;;;;15.80;99.90;;;;;;5029509;28;19939;-75
2021/08/23 05:01:08;;;;;;;;;;;15.70;99.90;;;;;;5030655;28;19964;-76
2021/08/23 05:03:34;;;;;;;;;;;15.70;99.90;;;;;;5048166;28;19920;-76
2021/08/23 05:05:59;;;;;;;;;;;15.70;99.90;;;;;;5029417;28;19924;-76
2021/08/23 05:08:25;;;;;;;;;;;15.70;99.90;;;;;;5045621;28;19917;-76
2021/08/23 05:10:50;;;;;;;;;;;15.70;99.90;;;;;;5028946;28;19960;-75
2021/08/23 05:13:15;;;;;;;;;;;15.60;99.90;;;;;;5047240;28;20011;-75
2021/08/23 05:15:41;;;;;;;;;;;15.60;99.90;;;;;;5034401;28;20220;-75
2021/08/23 05:18:06;;;;;;;;;;;15.60;99.90;;;;;;5042346;28;20458;-75
2021/08/23 05:20:32;;;;;;;;;;;15.60;99.90;;;;;;5041458;28;19913;-75
2021/08/23 05:22:58;;;;;;;;;;;15.60;99.90;;;;;;5051533;28;20011;-75
2021/08/23 05:25:23;;;;;;;;;;;15.50;99.90;;;;;;5051420;28;20271;-74
2021/08/23 05:27:49;;;;;;;;;;;15.50;99.90;;;;;;5032128;28;20390;-75
2021/08/23 05:30:14;;;;;;;;;;;15.50;99.90;;;;;;5050262;28;19913;-74
2021/08/23 05:32:39;;;;;;;;;;;15.50;99.90;;;;;;5050667;28;20107;-75
2021/08/23 05:35:05;;;;;;;;;;;15.50;99.90;;;;;;5030156;28;20031;-75
2021/08/23 05:37:31;;;;;;;;;;;15.50;99.90;;;;;;5049470;28;20197;-75
2021/08/23 05:39:56;;;;;;;;;;;15.40;99.90;;;;;;5031458;28;20701;-76
2021/08/23 05:42:21;;;;;;;;;;;15.40;99.90;;;;;;5044227;28;19916;-79
2021/08/23 05:44:47;;;;;;;;;;;15.40;99.90;;;;;;5027393;28;19917;-78
2021/08/23 05:47:13;;;;;;;;;;;15.40;99.90;;;;;;5047462;28;19927;-77
2021/08/23 05:49:38;;;;;;;;;;;15.40;99.90;;;;;;5050211;28;19913;-78
2021/08/23 05:52:04;;;;;;;;;;;15.40;99.90;;;;;;5050866;28;20399;-77
2021/08/23 05:54:29;;;;;;;;;;;15.40;99.90;;;;;;5088343;23;20523;-78
2021/08/23 05:56:57;;;;;;;;;;;15.40;99.90;;;;;;5069434;28;19923;-76
2021/08/23 05:59:23;;;;;;;;;;;15.40;99.90;;;;;;5070661;28;20062;-79
2021/08/23 06:01:55;;;;;;;;;;;15.40;99.90;;;;;;5070492;28;20010;-78
2021/08/23 06:04:20;;;;;;;;;;;15.40;99.90;;;;;;5066111;28;19919;-76
2021/08/23 06:06:46;;;;;;;;;;;15.40;99.90;;;;;;5070325;28;20016;-75
2021/08/23 06:09:12;;;;;;;;;;;15.40;99.90;;;;;;5070140;28;19939;-74
2021/08/23 06:11:37;;;;;;;;;;;15.40;99.90;;;;;;5070615;28;19921;-73
2021/08/23 06:14:02;;;;;;;;;;;15.50;99.90;;;;;;5069151;28;19994;-74
2021/08/23 06:16:28;;;;;;;;;;;15.50;99.90;;;;;;5070605;28;20390;-76
2021/08/23 06:18:53;;;;;;;;;;;15.50;99.90;;;;;;5066455;28;19951;-76
2021/08/23 06:21:19;;;;;;;;;;;15.50;99.90;;;;;;5064427;28;19917;-76
2021/08/23 06:23:44;;;;;;;;;;;15.50;99.90;;;;;;5064298;28;20402;-76
2021/08/23 06:26:09;;;;;;;;;;;15.50;99.90;;;;;;5066652;28;20385;-76
2021/08/23 06:28:35;;;;;;;;;;;15.50;99.90;;;;;;5069704;28;19958;-76
2021/08/23 06:31:01;;;;;;;;;;;15.50;99.90;;;;;;5069887;28;20287;-74
2021/08/23 06:33:26;;;;;;;;;;;15.60;99.90;;;;;;5069133;28;19916;-75
2021/08/23 06:35:52;;;;;;;;;;;15.60;99.90;;;;;;5067502;28;19994;-78
2021/08/23 06:38:17;;;;;;;;;;;15.50;99.90;;;;;;5068634;28;19917;-78
2021/08/23 06:40:42;;;;;;;;;;;15.60;99.90;;;;;;5069901;28;20286;-79
2021/08/23 06:43:08;;;;;;;;;;;15.60;99.90;;;;;;5067984;28;19921;-78
2021/08/23 06:45:33;;;;;;;;;;;15.60;99.90;;;;;;5070140;28;20359;-78
2021/08/23 06:47:59;;;;;;;;;;;15.60;99.90;;;;;;5069282;28;20448;-78
2021/08/23 06:50:24;;;;;;;;;;;15.60;99.90;;;;;;5068371;28;19913;-75
2021/08/23 06:52:50;;;;;;;;;;;15.70;99.90;;;;;;5068784;28;19913;-75
2021/08/23 06:55:15;;;;;;;;;;;15.70;99.90;;;;;;5069392;28;20424;-74
2021/08/23 06:57:41;;;;;;;;;;;15.70;99.90;;;;;;5067690;28;19928;-74
2021/08/23 07:00:07;;;;;;;;;;;15.70;99.90;;;;;;5065680;28;20384;-74
2021/08/23 07:02:32;;;;;;;;;;;15.70;99.90;;;;;;5066559;28;19928;-77
2021/08/23 07:04:57;;;;;;;;;;;15.80;99.90;;;;;;5067059;28;19916;-78
2021/08/23 07:07:23;;;;;;;;;;;15.80;99.90;;;;;;5070041;28;19908;-78
2021/08/23 07:09:48;;;;;;;;;;;15.80;99.90;;;;;;5067985;28;20003;-78
2021/08/23 07:12:14;;;;;;;;;;;15.80;99.90;;;;;;5069470;28;20006;-77
2021/08/23 07:14:39;;;;;;;;;;;15.80;99.90;;;;;;5081972;28;19920;-76
2021/08/23 07:17:05;;;;;;;;;;;15.90;99.90;;;;;;5067311;28;19916;-75
2021/08/23 07:19:31;;;;;;;;;;;15.90;99.90;;;;;;5067181;28;19912;-75
2021/08/23 07:21:56;;;;;;;;;;;16.00;99.90;;;;;;5068862;28;19920;-75
2021/08/23 07:24:22;;;;;;;;;;;16.10;99.90;;;;;;5066798;28;19967;-74
2021/08/23 07:26:47;;;;;;;;;;;16.10;99.90;;;;;;5068949;28;19912;-74
2021/08/23 07:29:13;;;;;;;;;;;16.20;99.90;;;;;;5069993;28;20302;-76
2021/08/23 07:31:41;;;;;;;;;;;16.20;99.90;;;;;;5068845;28;20389;-76
2021/08/23 07:34:07;;;;;;;;;;;16.30;99.90;;;;;;5066427;28;20559;-76
2021/08/23 07:36:33;;;;;;;;;;;16.40;99.90;;;;;;5069661;28;19908;-76
2021/08/23 07:38:58;;;;;;;;;;;16.40;99.90;;;;;;5068508;28;19970;-79
2021/08/23 07:41:24;;;;;;;;;;;16.40;99.90;;;;;;5066835;28;19935;-76
2021/08/23 07:43:49;;;;;;;;;;;16.40;99.90;;;;;;5065563;28;19912;-77
2021/08/23 07:46:15;;;;;;;;;;;16.40;99.90;;;;;;5065778;28;19966;-76
2021/08/23 07:48:41;;;;;;;;;;;16.50;99.90;;;;;;5064301;28;19912;-76
2021/08/23 07:51:07;;;;;;;;;;;16.50;99.90;;;;;;5066019;28;20429;-76
2021/08/23 07:53:32;;;;;;;;;;;16.50;99.90;;;;;;5061463;28;19921;-76
2021/08/23 07:55:57;;;;;;;;;;;16.50;99.90;;;;;;5064885;28;19916;-75
2021/08/23 07:58:23;;;;;;;;;;;16.60;99.90;;;;;;5065450;28;19912;-76
2021/08/23 08:00:48;;;;;;;;;;;16.70;99.90;;;;;;5066455;28;19916;-75
2021/08/23 08:03:14;;;;;;;;;;;16.60;99.80;;;;;;5066612;28;19916;-75
2021/08/23 08:05:39;;;;;;;;;;;16.60;99.80;;;;;;5066252;28;19923;-75
2021/08/23 08:08:08;;;;;;;;;;;16.50;99.80;;;;;;5068545;28;19916;-74
2021/08/23 08:10:34;;;;;;;;;;;16.60;99.90;;;;;;5066980;28;19980;-75
2021/08/23 08:13:00;;;;;;;;;;;16.60;99.90;;;;;;5066214;28;20333;-77
2021/08/23 08:15:26;;;;;;;;;;;16.60;99.80;;;;;;5067835;28;20401;-77
2021/08/23 08:17:51;;;;;;;;;;;16.60;99.80;;;;;;5069465;28;19913;-76
2021/08/23 08:20:16;;;;;;;;;;;16.70;99.80;;;;;;5067536;28;20271;-76
2021/08/23 08:22:44;;;;;;;;;;;16.70;99.70;;;;;;5066448;28;19960;-74
2021/08/23 08:25:10;;;;;;;;;;;16.70;99.60;;;;;;5066622;28;19991;-75
2021/08/23 08:27:35;;;;;;;;;;;16.80;99.70;;;;;;5067980;28;20386;-75
2021/08/23 08:30:01;;;;;;;;;;;16.90;99.70;;;;;;5068950;28;19970;-75
2021/08/23 08:32:26;;;;;;;;;;;16.90;99.60;;;;;;5068171;28;19913;-75
2021/08/23 08:34:51;;;;;;;;;;;16.90;99.50;;;;;;5066391;28;19916;-75
2021/08/23 08:37:17;;;;;;;;;;;17.00;99.50;;;;;;5067883;28;19919;-74
2021/08/23 08:39:42;;;;;;;;;;;17.00;99.40;;;;;;5066840;28;19919;-75
2021/08/23 08:42:08;;;;;;;;;;;17.10;99.10;;;;;;5066805;28;19920;-74
2021/08/23 08:44:33;;;;;;;;;;;17.10;99.20;;;;;;5064862;28;19912;-73
2021/08/23 08:46:59;;;;;;;;;;;17.20;99.10;;;;;;5067836;28;19923;-73
2021/08/23 08:49:26;;;;;;;;;;;17.30;99.10;;;;;;5069264;28;19919;-75
2021/08/23 08:51:52;;;;;;;;;;;17.30;98.90;;;;;;5071967;28;20317;-75
2021/08/23 08:54:18;;;;;;;;;;;17.40;98.80;;;;;;5069244;28;20037;-75
2021/08/23 08:56:43;;;;;;;;;;;17.50;98.70;;;;;;5071030;28;20359;-75
2021/08/23 08:59:09;;;;;;;;;;;17.40;98.30;;;;;;5070499;28;20268;-75
2021/08/23 09:01:35;;;;;;;;;;;17.40;98.40;;;;;;5069134;28;19913;-75
2021/08/23 09:04:01;;;;;;;;;;;17.40;98.30;;;;;;5068965;28;19916;-75
2021/08/23 09:06:26;;;;;;;;;;;17.40;98.00;;;;;;5070718;28;19943;-75
2021/08/23 09:08:51;;;;;;;;;;;17.40;98.10;;;;;;5071469;28;20580;-75
2021/08/23 09:11:21;;;;;;;;;;;17.30;97.90;;;;;;5069413;28;19912;-76
2021/08/23 09:14:03;;;;;;;;;;;17.40;97.90;;;;;;5070726;28;19916;-75
2021/08/23 09:16:30;;;;;;;;;;;17.40;97.90;;;;;;5067945;28;19970;-78
2021/08/23 09:18:56;;;;;;;;;;;17.50;97.90;;;;;;5071220;28;20428;-75
2021/08/23 09:21:31;;;;;;;;;;;17.70;97.80;;;;;;5069816;28;20259;-75
2021/08/23 09:24:00;;;;;;;;;;;17.80;97.50;;;;;;5070772;28;20299;-75
2021/08/23 09:26:31;;;;;;;;;;;17.80;97.30;;;;;;5069864;28;20514;-76
2021/08/23 09:29:00;;;;;;;;;;;17.90;97.10;;;;;;5069971;28;19916;-75
2021/08/23 09:31:27;;;;;;;;;;;18.00;97.10;;;;;;5071653;28;19916;-75
2021/08/23 09:33:52;;;;;;;;;;;18.10;96.70;;;;;;5061931;28;19921;-75
2021/08/23 09:36:19;;;;;;;;;;;18.20;96.90;;;;;;5070811;28;19970;-77
2021/08/23 09:38:55;;;;;;;;;;;18.40;96.10;;;;;;5068974;28;19917;-77
2021/08/23 09:41:23;;;;;;;;;;;18.60;95.50;;;;;;5070993;28;20386;-77
2021/08/23 09:44:02;;;;;;;;;;;18.70;95.50;;;;;;5070698;28;19920;-76
2021/08/23 09:46:28;;;;;;;;;;;18.90;95.40;;;;;;5070866;28;19920;-76
2021/08/23 09:48:54;;;;;;;;;;;19.00;94.80;;;;;;5070848;28;19938;-74
2021/08/23 09:51:28;;;;;;;;;;;19.00;94.50;;;;;;5071894;28;20395;-72
2021/08/23 09:54:07;;;;;;;;;;;19.00;94.70;;;;;;5067713;28;20031;-72
2021/08/23 09:56:33;;;;;;;;;;;19.10;94.90;;;;;;5070126;28;19977;-73
2021/08/23 09:59:00;;;;;;;;;;;19.20;93.60;;;;;;5068933;28;20303;-72
2021/08/23 10:01:25;;;;;;;;;;;19.20;93.20;;;;;;5068417;28;20294;-73
2021/08/23 10:03:51;;;;;;;;;;;19.30;92.20;;;;;;5069247;28;19923;-72
2021/08/23 10:06:17;;;;;;;;;;;19.40;92.70;;;;;;5070600;28;19919;-72
2021/08/23 10:08:42;;;;;;;;;;;19.50;90.70;;;;;;5069986;28;19932;-73
2021/08/23 10:11:11;;;;;;;;;;;19.50;91.30;;;;;;5071261;28;19942;-72
2021/08/23 10:13:37;;;;;;;;;;;19.70;90.40;;;;;;5070915;28;19958;-72
2021/08/23 10:16:02;;;;;;;;;;;19.90;90.50;;;;;;5070915;28;20383;-72
2021/08/23 10:18:28;;;;;;;;;;;19.90;90.00;;;;;;5070143;28;20008;-71
2021/08/23 10:20:53;;;;;;;;;;;19.90;90.00;;;;;;5070673;28;19912;-72
2021/08/23 10:23:19;;;;;;;;;;;20.00;90.60;;;;;;5071083;28;19969;-72
2021/08/23 10:25:46;;;;;;;;;;;20.20;90.00;;;;;;5070750;28;19933;-72
2021/08/23 10:28:12;;;;;;;;;;;20.20;88.40;;;;;;5071169;28;19916;-72
2021/08/23 10:30:38;;;;;;;;;;;20.30;88.10;;;;;;5071208;28;19912;-72
2021/08/23 10:33:10;;;;;;;;;;;20.40;88.50;;;;;;5069777;28;19998;-72
2021/08/23 10:35:44;;;;;;;;;;;20.40;86.50;;;;;;5066944;28;19950;-73
2021/08/23 10:38:15;;;;;;;;;;;20.50;86.90;;;;;;5068858;28;19917;-72
2021/08/23 10:40:40;;;;;;;;;;;20.50;86.30;;;;;;5066091;28;20003;-72
2021/08/23 10:43:34;;;;;;;;;;;20.60;85.90;;;;;;5070646;28;20007;-72
2021/08/23 10:46:00;;;;;;;;;;;20.60;85.80;;;;;;5061047;28;20398;-72
2021/08/23 10:48:25;;;;;;;;;;;20.50;85.20;;;;;;5069018;28;19912;-72
2021/08/23 10:50:58;;;;;;;;;;;20.40;84.80;;;;;;5069111;28;19919;-72
2021/08/23 10:53:32;;;;;;;;;;;20.30;84.90;;;;;;5067299;28;19969;-72
2021/08/23 10:55:57;;;;;;;;;;;20.30;85.50;;;;;;5068313;28;20003;-72
2021/08/23 10:58:28;;;;;;;;;;;20.30;80.50;;;;;;5065955;28;20008;-77
2021/08/23 11:00:54;;;;;;;;;;;20.40;81.50;;;;;;5068218;28;19912;-77
2021/08/23 11:03:27;;;;;;;;;;;20.50;81.70;;;;;;5069106;28;19919;-76
2021/08/23 11:06:02;;;;;;;;;;;20.60;75.30;;;;;;5067512;28;20433;-77
2021/08/23 11:08:27;;;;;;;;;;;20.70;71.90;;;;;;5068007;28;19912;-77
2021/08/23 11:11:09;;;;;;;;;;;20.80;73.00;;;;;;5065324;28;20310;-76
2021/08/23 11:13:38;;;;;;;;;;;20.90;73.00;;;;;;5068920;28;20427;-77
2021/08/23 11:16:06;;;;;;;;;;;21.00;73.20;;;;;;5068899;28;19912;-77
2021/08/23 11:18:38;;;;;;;;;;;21.20;73.10;;;;;;5070192;28;19912;-77
2021/08/23 11:21:04;;;;;;;;;;;21.10;72.30;;;;;;5067444;28;19988;-76
2021/08/23 11:23:29;;;;;;;;;;;21.20;70.30;;;;;;5066858;28;20206;-77
2021/08/23 11:25:58;;;;;;;;;;;21.20;68.30;;;;;;5067092;28;20018;-78
2021/08/23 11:28:29;;;;;;;;;;;21.30;64.80;;;;;;5068302;28;19924;-78
2021/08/23 11:30:55;;;;;;;;;;;21.30;64.70;;;;;;5069719;28;19915;-78
2021/08/23 11:33:23;;;;;;;;;;;21.30;66.00;;;;;;5070515;28;20430;-77
2021/08/23 11:35:49;;;;;;;;;;;21.30;65.60;;;;;;5067188;28;20374;-77
2021/08/23 11:38:14;;;;;;;;;;;21.40;66.90;;;;;;5069961;28;19912;-77
2021/08/23 11:40:40;;;;;;;;;;;21.40;64.90;;;;;;5069017;28;19913;-77
2021/08/23 11:43:07;;;;;;;;;;;21.40;63.20;;;;;;5068595;28;19927;-78
2021/08/23 11:45:35;;;;;;;;;;;21.50;62.50;;;;;;5067121;28;19969;-77
2021/08/23 11:48:01;;;;;;;;;;;21.50;63.10;;;;;;5069497;28;19927;-77
2021/08/23 11:50:27;;;;;;;;;;;21.60;62.00;;;;;;5068486;28;19908;-78
2021/08/23 11:52:54;;;;;;;;;;;21.70;63.40;;;;;;5068012;28;19916;-77
2021/08/23 11:55:24;;;;;;;;;;;21.80;62.30;;;;;;5074172;22;20274;-73
2021/08/23 11:57:56;;;;;;;;;;;21.80;60.00;;;;;;5049186;28;19925;-73
2021/08/23 12:00:22;;;;;;;;;;;21.80;60.60;;;;;;5049735;28;19913;-73
2021/08/23 12:02:47;;;;;;;;;;;21.80;60.00;;;;;;5049001;28;19917;-74
2021/08/23 12:05:14;;;;;;;;;;;21.70;59.60;;;;;;5048125;28;20653;-74
2021/08/23 12:07:43;;;;;;;;;;;21.70;60.40;;;;;;5030675;28;19913;-73
2021/08/23 12:10:09;;;;;;;;;;;21.80;60.50;;;;;;5047132;28;19928;-74
2021/08/23 12:12:34;;;;;;;;;;;21.90;59.80;;;;;;5048577;28;19916;-73
2021/08/23 12:15:00;;;;;;;;;;;21.90;57.90;;;;;;5047303;28;20387;-73
2021/08/23 12:17:32;;;;;;;;;;;22.00;57.00;;;;;;5048012;28;19970;-73
2021/08/23 12:20:05;;;;;;;;;;;22.00;57.90;;;;;;5029155;28;19916;-74
2021/08/23 12:22:30;;;;;;;;;;;22.10;56.30;;;;;;5045223;28;19928;-74
2021/08/23 12:24:57;;;;;;;;;;;22.10;54.00;;;;;;5051592;28;19916;-73
2021/08/23 12:27:23;;;;;;;;;;;22.10;54.40;;;;;;5052520;28;19917;-74
2021/08/23 12:29:49;;;;;;;;;;;22.10;53.80;;;;;;5051850;28;19959;-73
2021/08/23 12:32:14;;;;;;;;;;;22.10;52.80;;;;;;5052041;28;19921;-73
2021/08/23 12:34:44;;;;;;;;;;;22.00;52.00;;;;;;5051106;28;19917;-74
2021/08/23 12:37:10;;;;;;;;;;;22.10;53.20;;;;;;5050802;28;20000;-74
2021/08/23 12:39:35;;;;;;;;;;;22.10;52.80;;;;;;5050345;28;20429;-75
2021/08/23 12:42:03;;;;;;;;;;;22.20;52.30;;;;;;5051787;28;19920;-74
2021/08/23 12:44:28;;;;;;;;;;;22.30;51.90;;;;;;5051958;28;19982;-74
2021/08/23 12:46:54;;;;;;;;;;;22.40;50.40;;;;;;5052301;28;19917;-74
2021/08/23 12:49:20;;;;;;;;;;;22.40;50.30;;;;;;5051256;28;19952;-73
2021/08/23 12:51:46;;;;;;;;;;;22.40;50.20;;;;;;5052097;28;19913;-74
2021/08/23 12:54:11;;;;;;;;;;;22.40;50.40;;;;;;5051145;28;19916;-74
2021/08/23 12:56:37;;;;;;;;;;;22.40;50.50;;;;;;5033398;28;20314;-74
2021/08/23 12:59:03;;;;;;;;;;;22.40;50.50;;;;;;5050782;28;20405;-73
2021/08/23 13:01:29;;;;;;;;;;;22.40;50.60;;;;;;5034385;28;19983;-74
2021/08/23 13:03:54;;;;;;;;;;;22.50;50.70;;;;;;5049781;28;20004;-74
2021/08/23 13:06:19;;;;;;;;;;;22.50;51.20;;;;;;5050295;28;19969;-73
2021/08/23 13:08:45;;;;;;;;;;;22.50;50.80;;;;;;5050756;28;19921;-75
2021/08/23 13:11:10;;;;;;;;;;;22.50;50.20;;;;;;5051046;28;19913;-73
2021/08/23 13:13:36;;;;;;;;;;;22.50;51.40;;;;;;5044508;28;20385;-73
2021/08/23 13:16:02;;;;;;;;;;;22.50;51.80;;;;;;5051687;28;19917;-73
2021/08/23 13:18:27;;;;;;;;;;;22.50;52.60;;;;;;5051559;28;19920;-73
2021/08/23 13:20:52;;;;;;;;;;;22.60;52.50;;;;;;5051698;28;19915;-74
2021/08/23 13:23:18;;;;;;;;;;;22.60;52.60;;;;;;5052005;28;19945;-74
2021/08/23 13:25:44;;;;;;;;;;;22.70;52.20;;;;;;5050491;28;20444;-74
2021/08/23 13:28:11;;;;;;;;;;;22.70;52.30;;;;;;5051876;28;20272;-74
2021/08/23 13:30:36;;;;;;;;;;;22.70;52.70;;;;;;5048229;28;19952;-74
2021/08/23 13:33:04;;;;;;;;;;;22.80;52.60;;;;;;5050861;28;20013;-74
2021/08/23 13:35:30;;;;;;;;;;;22.80;52.70;;;;;;5048866;28;19996;-73
2021/08/23 13:37:56;;;;;;;;;;;22.80;53.00;;;;;;5048345;28;19917;-72
2021/08/23 13:40:21;;;;;;;;;;;22.80;53.10;;;;;;5049128;28;20299;-73
2021/08/23 13:42:47;;;;;;;;;;;22.90;54.00;;;;;;5048681;28;20337;-74
2021/08/23 13:45:12;;;;;;;;;;;22.90;54.20;;;;;;5046863;28;19928;-73
2021/08/23 13:47:38;;;;;;;;;;;22.80;54.80;;;;;;5050585;28;19923;-73
2021/08/23 13:50:03;;;;;;;;;;;22.60;54.80;;;;;;5050793;28;19917;-73
2021/08/23 13:52:29;;;;;;;;;;;22.60;55.10;;;;;;5051336;28;19909;-73
2021/08/23 13:54:54;;;;;;;;;;;22.60;54.70;;;;;;5032080;28;19940;-73
2021/08/23 13:57:20;;;;;;;;;;;22.60;54.70;;;;;;5050210;28;19962;-74
2021/08/23 13:59:45;;;;;;;;;;;22.60;54.40;;;;;;5050777;28;19944;-74
2021/08/23 14:02:10;;;;;;;;;;;22.70;54.70;;;;;;5050851;28;19913;-73
2021/08/23 14:04:38;;;;;;;;;;;22.70;54.00;;;;;;5049069;28;19921;-74
2021/08/23 14:07:03;;;;;;;;;;;22.80;54.20;;;;;;5031890;28;19923;-73
2021/08/23 14:09:29;;;;;;;;;;;22.90;54.10;;;;;;5050811;28;19909;-74
2021/08/23 14:11:54;;;;;;;;;;;22.90;54.40;;;;;;5051326;28;20386;-73